Time;durP1;ratioP1;P1;durP2;ratioP2;P2;SDS_P1;SDS_P2;PMS_P1;PMS_P2;Temp;Humidity;BMP_temperature;BMP_pressure;BME280_temperature;BME280_humidity;BME280_pressure;Samples;Min_cycle;Max_cycle;Signal;HPM_P1;HPM_P2
2022/12/23 00:01:14;;;;;;;18.10;8.93;;;;;;;3.61;94.03;97762.95;1661187;85;25434;-69
2022/12/23 00:03:41;;;;;;;17.25;7.37;;;;;;;3.60;94.27;97762.70;1684463;85;25449;-68
2022/12/23 00:06:11;;;;;;;23.57;11.05;;;;;;;3.59;94.39;97766.48;1661272;85;25565;-67
2022/12/23 00:08:37;;;;;;;27.32;11.85;;;;;;;3.59;94.24;97768.66;1684317;85;25477;-66
2022/12/23 00:11:09;;;;;;;32.08;13.13;;;;;;;3.58;94.18;97770.30;1616848;85;27602;-65
2022/12/23 00:16:20;;;;;;;37.98;15.05;;;;;;;3.55;93.93;97773.05;1662877;85;25724;-66
2022/12/23 00:18:46;;;;;;;26.57;12.00;;;;;;;3.55;94.08;97768.16;1684085;85;25869;-66
2022/12/23 00:21:16;;;;;;;33.45;14.25;;;;;;;3.55;94.25;97773.05;1684376;85;25767;-65
2022/12/23 00:23:46;;;;;;;27.50;12.18;;;;;;;3.57;94.21;97772.19;1661124;85;27334;-65
2022/12/23 00:26:17;;;;;;;29.25;12.20;;;;;;;3.57;94.14;97766.77;1684386;85;26324;-66
2022/12/23 00:28:44;;;;;;;29.18;11.85;;;;;;;3.58;94.28;97764.88;1661662;85;25437;-65
2022/12/23 00:31:12;;;;;;;34.00;13.28;;;;;;;3.60;94.37;97770.26;1661038;85;25961;-66
2022/12/23 00:33:42;;;;;;;29.00;12.43;;;;;;;3.61;94.42;97777.84;1638849;85;25433;-65
2022/12/23 00:36:29;;;;;;;35.05;14.50;;;;;;;3.62;94.12;97772.68;1661246;85;27258;-68
2022/12/23 00:44:27;;;;;;;17.65;8.48;;;;;;;3.62;93.93;97755.88;1662750;85;25786;-66
2022/12/23 00:46:54;;;;;;;24.90;11.83;;;;;;;3.63;93.79;97749.36;1618940;85;25472;-65
2022/12/23 00:52:09;;;;;;;20.15;9.70;;;;;;;3.58;94.23;97756.75;1687125;84;25598;-65
2022/12/23 00:54:35;;;;;;;26.83;11.83;;;;;;;3.53;94.41;97754.91;1688633;84;25431;-66
2022/12/23 00:57:01;;;;;;;24.70;10.63;;;;;;;3.54;94.31;97769.27;1688353;84;25790;-66
2022/12/23 00:59:28;;;;;;;22.98;11.10;;;;;;;3.52;94.32;97770.91;1688357;84;25495;-67
2022/12/23 01:07:24;;;;;;;38.83;18.05;;;;;;;3.48;94.44;97763.91;1687300;84;25487;-67
2022/12/23 01:09:50;;;;;;;35.63;16.20;;;;;;;3.47;94.69;97765.55;1688432;84;25942;-67
2022/12/23 01:12:16;;;;;;;39.45;17.20;;;;;;;3.46;94.70;97753.92;1665108;85;25472;-67
2022/12/23 01:14:43;;;;;;;47.55;20.15;;;;;;;3.47;94.32;97757.42;1688305;84;28471;-66
2022/12/23 01:17:09;;;;;;;33.73;16.85;;;;;;;3.46;94.02;97760.70;1664823;84;25799;-67
2022/12/23 01:19:35;;;;;;;35.58;16.75;;;;;;;3.47;94.15;97753.36;1688296;84;25725;-67
2022/12/23 01:22:01;;;;;;;34.18;15.70;;;;;;;3.45;94.29;97759.06;1664868;85;25762;-66
2022/12/23 01:24:30;;;;;;;35.13;16.62;;;;;;;3.44;94.06;97751.22;1688352;84;25474;-69
2022/12/23 01:26:56;;;;;;;86.05;39.63;;;;;;;3.44;94.21;97750.69;1664951;85;27552;-67
2022/12/23 01:29:22;;;;;;;67.55;29.82;;;;;;;3.43;94.49;97747.73;1688067;84;25680;-67
2022/12/23 01:31:49;;;;;;;27.15;13.43;;;;;;;3.44;94.68;97756.10;1665200;84;25427;-66
2022/12/23 01:34:15;;;;;;;30.50;13.55;;;;;;;3.48;94.98;97753.60;1688261;84;25880;-71
2022/12/23 01:36:41;;;;;;;29.60;14.23;;;;;;;3.45;94.42;97755.00;1665132;85;25451;-69
2022/12/23 01:39:07;;;;;;;28.02;12.25;;;;;;;3.42;94.36;97756.14;1665199;84;27286;-66
2022/12/23 01:44:52;;;;;;;35.50;17.45;;;;;;;3.34;95.05;97773.27;1667601;85;25719;-67
2022/12/23 01:47:48;;;;;;;33.00;16.33;;;;;;;3.34;95.00;97770.55;1676535;84;25711;-66
2022/12/23 01:50:25;;;;;;;40.17;17.23;;;;;;;3.34;95.22;97765.70;1681980;85;25506;-66
2022/12/23 01:53:13;;;;;;;24.60;11.93;;;;;;;3.34;94.87;97771.91;1682052;85;27329;-66
2022/12/23 01:55:53;;;;;;;27.13;12.75;;;;;;;3.33;95.17;97768.95;1668498;86;25530;-68
2022/12/23 01:58:34;;;;;;;23.85;10.88;;;;;;;3.36;95.17;97768.37;1636668;86;25647;-65
2022/12/23 02:03:48;;;;;;;45.28;24.57;;;;;;;3.40;95.36;97786.22;1679676;85;25490;-67
2022/12/23 02:09:30;;;;;;;27.50;13.00;;;;;;;3.42;95.03;97784.02;1668563;86;25465;-66
2022/12/23 02:12:23;;;;;;;22.70;11.85;;;;;;;3.44;94.97;97782.37;1681664;85;25670;-67
2022/12/23 02:18:20;;;;;;;25.45;11.75;;;;;;;3.44;94.80;97791.86;1634609;87;25687;-67
2022/12/23 02:21:12;;;;;;;30.12;16.70;;;;;;;3.45;95.07;97791.56;1634624;87;27365;-68
2022/12/23 02:24:21;;;;;;;30.40;18.17;;;;;;;3.47;95.13;97789.92;1634826;87;25820;-70
2022/12/23 02:27:30;;;;;;;33.30;14.33;;;;;;;3.45;95.08;97780.73;1634961;87;25523;-68
2022/12/23 02:30:34;;;;;;;16.30;8.08;;;;;;;3.49;95.36;97789.09;1612692;87;25716;-69
2022/12/23 02:33:27;;;;;;;14.13;7.20;;;;;;;3.47;95.83;97790.74;1612901;87;25713;-69
2022/12/23 02:36:19;;;;;;;18.32;8.55;;;;;;;3.49;95.96;97792.59;1559548;92;27477;-68
2022/12/23 02:39:03;;;;;;;18.67;8.70;;;;;;;3.51;95.98;97792.30;1559159;92;25836;-69
2022/12/23 02:41:43;;;;;;;21.52;11.93;;;;;;;3.52;95.76;97781.75;1559878;90;25545;-70
2022/12/23 02:44:23;;;;;;;17.73;10.18;;;;;;;3.53;95.43;97783.36;1539881;91;25700;-69
2022/12/23 02:46:53;;;;;;;31.30;13.60;;;;;;;3.53;95.66;97777.94;1538395;92;25492;-69
2022/12/23 02:49:34;;;;;;;20.60;10.32;;;;;;;3.43;95.69;97772.11;1546086;92;27468;-70
2022/12/23 02:52:04;;;;;;;19.30;9.83;;;;;;;3.55;95.77;97784.42;1549104;90;25702;-72
2022/12/23 02:54:36;;;;;;;12.98;7.28;;;;;;;3.57;95.84;97768.13;1594466;90;25512;-69
2022/12/23 02:57:05;;;;;;;13.55;7.25;;;;;;;3.62;96.25;97767.26;1553399;90;26317;-70
2022/12/23 02:59:37;;;;;;;17.35;8.80;;;;;;;3.67;96.36;97767.20;1554002;90;25588;-70
2022/12/23 03:02:03;;;;;;;16.70;8.25;;;;;;;3.71;96.34;97768.80;1594452;90;27534;-70
2022/12/23 03:04:29;;;;;;;20.70;11.63;;;;;;;3.73;96.20;97766.05;1573452;90;26076;-71
2022/12/23 03:06:59;;;;;;;17.73;8.13;;;;;;;3.75;95.72;97765.76;1553863;90;25499;-70
2022/12/23 03:09:57;;;;;;;18.17;8.65;;;;;;;3.75;95.74;97770.61;1573349;90;25890;-70
2022/12/23 03:12:50;;;;;;;18.70;8.33;;;;;;;3.73;95.92;97764.69;1625865;85;25786;-71
2022/12/23 03:15:30;;;;;;;15.80;6.70;;;;;;;3.75;95.81;97761.69;1682991;85;28347;-69
2022/12/23 03:18:08;;;;;;;19.60;8.75;;;;;;;3.74;95.77;97751.94;1683032;85;25912;-71
2022/12/23 03:21:03;;;;;;;12.53;7.08;;;;;;;3.75;96.24;97747.58;1665188;85;25683;-70
2022/12/23 03:23:40;;;;;;;14.78;7.83;;;;;;;3.76;96.17;97751.10;1683188;85;25687;-69
2022/12/23 03:26:12;;;;;;;22.52;9.58;;;;;;;3.77;95.81;97755.42;1664355;85;25675;-70
2022/12/23 03:29:01;;;;;;;17.77;7.90;;;;;;;3.75;95.83;97755.70;1688553;84;27641;-71
2022/12/23 03:31:30;;;;;;;13.00;7.28;;;;;;;3.75;95.66;97758.98;1664761;85;25763;-70
2022/12/23 03:34:14;;;;;;;17.10;8.68;;;;;;;3.73;95.53;97756.56;1665075;85;25691;-70
2022/12/23 03:36:54;;;;;;;14.20;7.90;;;;;;;3.73;95.41;97752.50;1665306;85;25680;-71
2022/12/23 03:39:25;;;;;;;26.63;11.00;;;;;;;3.72;95.12;97752.80;1665268;85;25699;-70
2022/12/23 03:41:57;;;;;;;14.83;7.20;;;;;;;3.71;95.00;97751.97;1688188;84;28294;-70
2022/12/23 03:44:31;;;;;;;12.80;8.30;;;;;;;3.70;95.21;97744.95;1664741;85;25976;-70
2022/12/23 03:47:15;;;;;;;14.07;5.70;;;;;;;3.71;95.32;97743.84;1665321;85;25567;-71
2022/12/23 03:49:49;;;;;;;22.55;8.50;;;;;;;3.69;95.65;97736.58;1684279;85;25684;-69
2022/12/23 03:52:19;;;;;;;14.78;6.37;;;;;;;3.67;95.40;97744.17;1665333;85;25462;-70
2022/12/23 03:54:54;;;;;;;7.87;4.47;;;;;;;3.62;95.88;97740.16;1685134;84;27608;-71
2022/12/23 03:57:32;;;;;;;11.73;5.40;;;;;;;3.60;95.68;97739.67;1665259;85;25500;-69
2022/12/23 03:59:58;;;;;;;8.00;4.37;;;;;;;3.61;95.86;97737.20;1684494;85;25602;-69
2022/12/23 04:02:36;;;;;;;9.73;6.12;;;;;;;3.60;96.25;97737.75;1684593;85;25624;-69
2022/12/23 04:05:24;;;;;;;15.15;8.35;;;;;;;3.62;96.09;97737.45;1665024;85;25598;-69
2022/12/23 04:08:17;;;;;;;20.45;7.95;;;;;;;3.65;95.89;97745.00;1665202;85;27482;-70
2022/12/23 04:10:45;;;;;;;15.88;9.00;;;;;;;3.64;95.89;97741.51;1684962;85;25446;-70
2022/12/23 04:13:11;;;;;;;18.45;9.08;;;;;;;3.67;95.52;97736.59;1688506;84;25469;-68
2022/12/23 04:15:40;;;;;;;14.58;7.45;;;;;;;3.66;95.29;97733.09;1665191;85;25847;-70
2022/12/23 04:18:08;;;;;;;16.10;7.78;;;;;;;3.65;95.30;97731.45;1664891;85;25420;-68
2022/12/23 04:20:35;;;;;;;10.93;6.47;;;;;;;3.68;95.25;97730.88;1665368;85;27396;-69
2022/12/23 04:23:01;;;;;;;13.48;8.43;;;;;;;3.69;95.15;97734.41;1664758;85;25690;-69
2022/12/23 04:25:28;;;;;;;16.35;10.15;;;;;;;3.66;95.01;97729.02;1646435;85;25521;-69
2022/12/23 04:27:53;;;;;;;24.47;11.78;;;;;;;3.69;95.18;97723.56;1665157;85;25912;-68
2022/12/23 04:30:20;;;;;;;13.08;7.00;;;;;;;3.67;95.00;97719.79;1688424;84;25650;-68
2022/12/23 04:32:46;;;;;;;18.25;7.62;;;;;;;3.66;95.04;97716.83;1646321;85;28382;-68
2022/12/23 04:35:12;;;;;;;17.85;9.60;;;;;;;3.67;94.99;97718.44;1664767;85;25677;-69
2022/12/23 04:37:39;;;;;;;14.87;7.53;;;;;;;3.68;94.77;97717.90;1664902;85;25607;-68
2022/12/23 04:40:07;;;;;;;14.60;8.33;;;;;;;3.68;94.76;97721.39;1665184;85;26001;-69
2022/12/23 04:42:34;;;;;;;18.20;10.78;;;;;;;3.70;94.64;97723.81;1646303;85;25673;-68
2022/12/23 04:45:00;;;;;;;16.40;9.50;;;;;;;3.71;94.63;97722.17;1688263;84;27536;-69
2022/12/23 04:47:26;;;;;;;18.60;11.73;;;;;;;3.73;94.52;97728.11;1664981;85;25782;-69
2022/12/23 04:49:53;;;;;;;20.20;11.63;;;;;;;3.76;94.48;97729.42;1688306;84;25699;-69
2022/12/23 04:52:19;;;;;;;19.10;11.18;;;;;;;3.80;94.40;97730.45;1688450;84;26290;-69
2022/12/23 04:54:46;;;;;;;26.45;14.07;;;;;;;3.83;94.47;97727.15;1688525;84;25516;-70
2022/12/23 04:57:12;;;;;;;20.82;12.60;;;;;;;3.84;94.01;97725.25;1642711;85;27517;-70
2022/12/23 04:59:38;;;;;;;23.07;14.10;;;;;;;3.79;93.67;97730.20;1688306;84;25959;-70
2022/12/23 05:02:04;;;;;;;29.85;15.40;;;;;;;3.74;93.47;97727.55;1688106;84;25646;-69
2022/12/23 05:04:30;;;;;;;26.12;13.40;;;;;;;3.70;93.62;97722.45;1688486;84;25725;-69
2022/12/23 05:06:57;;;;;;;27.87;14.85;;;;;;;3.68;93.68;97721.96;1642796;85;25708;-69
2022/12/23 05:09:23;;;;;;;24.32;13.78;;;;;;;3.65;93.62;97719.27;1688457;84;27494;-69
2022/12/23 05:11:49;;;;;;;20.48;12.13;;;;;;;3.63;93.67;97717.41;1688154;84;25452;-69
2022/12/23 05:14:15;;;;;;;14.93;9.15;;;;;;;3.61;93.50;97718.24;1665149;85;25511;-70
2022/12/23 05:16:41;;;;;;;15.32;8.55;;;;;;;3.60;93.42;97722.06;1664956;85;25797;-70
2022/12/23 05:19:09;;;;;;;14.93;9.25;;;;;;;3.61;93.47;97715.53;1646498;85;25434;-69
2022/12/23 05:21:35;;;;;;;14.73;7.60;;;;;;;3.63;93.42;97711.42;1665123;85;27575;-69
2022/12/23 05:24:02;;;;;;;14.05;7.85;;;;;;;3.64;93.42;97712.24;1688545;84;25498;-69
2022/12/23 05:26:28;;;;;;;16.97;10.82;;;;;;;3.69;93.48;97713.54;1664884;85;25727;-69
2022/12/23 05:28:55;;;;;;;18.92;11.38;;;;;;;3.71;93.45;97704.55;1688595;84;25743;-69
2022/12/23 05:31:21;;;;;;;13.95;8.05;;;;;;;3.77;93.28;97702.57;1665308;85;25634;-68
2022/12/23 05:33:55;;;;;;;26.10;14.43;;;;;;;3.80;93.16;97706.63;1665264;85;28254;-69
2022/12/23 05:36:26;;;;;;;19.30;10.05;;;;;;;3.78;93.06;97703.39;1665191;85;25873;-69
2022/12/23 05:38:57;;;;;;;13.78;8.80;;;;;;;3.77;93.08;97699.86;1684755;84;25632;-69
2022/12/23 05:41:38;;;;;;;12.18;5.03;;;;;;;3.77;93.15;97702.57;1646486;85;25746;-69
2022/12/23 05:44:09;;;;;;;12.58;6.92;;;;;;;3.74;93.23;97703.97;1666444;85;25492;-69
2022/12/23 05:46:36;;;;;;;19.17;9.13;;;;;;;3.71;93.25;97701.06;1665166;85;27663;-70
2022/12/23 05:49:02;;;;;;;10.85;6.03;;;;;;;3.70;93.23;97699.42;1664682;85;25719;-70
2022/12/23 05:51:28;;;;;;;15.70;7.55;;;;;;;3.68;93.20;97704.34;1644490;85;25613;-70
2022/12/23 05:53:54;;;;;;;20.60;9.35;;;;;;;3.68;93.18;97697.00;1665279;85;26363;-70
2022/12/23 05:56:20;;;;;;;18.75;8.53;;;;;;;3.70;93.08;97694.00;1665133;85;25518;-70
2022/12/23 05:58:47;;;;;;;16.27;9.08;;;;;;;3.70;92.91;97697.53;1644761;85;27191;-70
2022/12/23 06:01:13;;;;;;;10.98;5.35;;;;;;;3.70;92.82;97692.11;1683109;84;25658;-70
2022/12/23 06:03:39;;;;;;;20.60;8.20;;;;;;;3.72;92.64;97687.22;1622919;85;25649;-70
2022/12/23 06:06:05;;;;;;;13.65;7.62;;;;;;;3.74;92.59;97690.95;1644569;85;25686;-70
2022/12/23 06:08:31;;;;;;;12.60;6.95;;;;;;;3.73;92.46;97696.95;1664737;85;25550;-70
2022/12/23 06:10:58;;;;;;;21.62;10.82;;;;;;;3.70;92.54;97700.78;1665275;85;27754;-70
2022/12/23 06:13:25;;;;;;;15.48;9.05;;;;;;;3.64;92.68;97694.09;1665021;85;25957;-70
2022/12/23 06:16:02;;;;;;;21.73;9.95;;;;;;;3.63;92.74;97697.09;1664932;85;25465;-70
2022/12/23 06:18:28;;;;;;;17.50;8.50;;;;;;;3.58;92.71;97687.12;1665467;84;25731;-70
2022/12/23 06:20:55;;;;;;;18.10;9.15;;;;;;;3.56;92.72;97698.80;1664960;85;25633;-70
2022/12/23 06:23:21;;;;;;;16.48;8.05;;;;;;;3.54;92.82;97695.56;1665297;85;27449;-70
2022/12/23 06:25:47;;;;;;;14.33;7.25;;;;;;;3.53;92.91;97693.95;1664768;85;26861;-71
2022/12/23 06:28:13;;;;;;;19.25;11.45;;;;;;;3.52;92.95;97697.77;1665135;85;25537;-71
2022/12/23 06:30:39;;;;;;;17.45;9.65;;;;;;;3.51;92.95;97696.95;1688288;84;25542;-71
2022/12/23 06:33:05;;;;;;;20.82;10.72;;;;;;;3.50;92.97;97695.35;1622746;85;25542;-71
2022/12/23 06:35:31;;;;;;;23.73;11.38;;;;;;;3.53;92.97;97700.73;1688324;84;27395;-71
2022/12/23 06:37:57;;;;;;;18.17;9.50;;;;;;;3.53;92.91;97697.20;1688197;84;25603;-72
2022/12/23 06:40:23;;;;;;;18.62;8.53;;;;;;;3.54;92.97;97693.42;1664983;85;25679;-72
2022/12/23 06:42:49;;;;;;;19.15;9.00;;;;;;;3.53;92.96;97691.78;1622701;85;26483;-72
2022/12/23 06:45:16;;;;;;;20.05;10.38;;;;;;;3.55;92.97;97699.91;1665083;85;25650;-71
2022/12/23 06:47:42;;;;;;;21.52;9.98;;;;;;;3.57;92.99;97689.56;1683144;84;27427;-72
2022/12/23 06:50:08;;;;;;;21.30;9.40;;;;;;;3.59;92.99;97704.98;1648012;85;25651;-73
2022/12/23 06:52:34;;;;;;;17.73;8.55;;;;;;;3.62;93.20;97711.17;1665233;85;25484;-72
2022/12/23 06:55:01;;;;;;;13.25;7.03;;;;;;;3.64;93.12;97714.95;1648155;85;25625;-71
2022/12/23 06:57:27;;;;;;;15.65;8.08;;;;;;;3.67;93.29;97717.08;1665020;85;25824;-70
2022/12/23 06:59:53;;;;;;;17.07;8.98;;;;;;;3.65;93.47;97719.27;1688462;85;27530;-73
2022/12/23 07:02:19;;;;;;;11.35;5.95;;;;;;;3.63;93.54;97720.13;1665082;85;25837;-72
2022/12/23 07:04:46;;;;;;;13.72;7.47;;;;;;;3.60;94.07;97718.00;1665001;85;25563;-71
2022/12/23 07:07:12;;;;;;;19.00;8.75;;;;;;;3.60;94.26;97718.00;1688259;85;25733;-72
2022/12/23 07:09:38;;;;;;;22.45;10.58;;;;;;;3.60;94.25;97720.14;1688396;84;25623;-73
2022/12/23 07:12:05;;;;;;;18.23;9.28;;;;;;;3.63;94.18;97724.19;1665143;85;27466;-73
2022/12/23 07:14:32;;;;;;;20.62;10.53;;;;;;;3.67;94.35;97721.14;1665020;85;25826;-72
2022/12/23 07:16:58;;;;;;;17.82;8.85;;;;;;;3.73;94.44;97724.05;1642512;85;25800;-73
2022/12/23 07:19:25;;;;;;;20.23;9.93;;;;;;;3.76;94.45;97719.40;1665051;85;25647;-72
2022/12/23 07:21:51;;;;;;;21.35;10.10;;;;;;;3.81;94.28;97725.84;1687026;85;25438;-72
2022/12/23 07:24:18;;;;;;;16.67;7.42;;;;;;;3.86;94.31;97721.72;1664646;85;27221;-75
2022/12/23 07:26:44;;;;;;;19.12;9.88;;;;;;;3.87;94.58;97721.42;1648259;85;25752;-75
2022/12/23 07:29:10;;;;;;;18.42;9.53;;;;;;;3.93;94.40;97724.86;1665247;85;25477;-76
2022/12/23 07:31:37;;;;;;;18.65;9.98;;;;;;;3.96;94.37;97722.10;1665255;85;25819;-73
2022/12/23 07:34:03;;;;;;;17.07;8.78;;;;;;;4.01;94.21;97728.25;1665186;85;25743;-76
2022/12/23 07:36:29;;;;;;;23.45;12.10;;;;;;;4.04;94.29;97725.52;1665154;85;28108;-78
2022/12/23 07:38:55;;;;;;;92.95;36.08;;;;;;;4.10;94.28;97728.42;1688336;84;25448;-76
2022/12/23 07:41:22;;;;;;;54.27;30.97;;;;;;;4.14;94.32;97727.26;1688335;85;25723;-80
2022/12/23 07:43:48;;;;;;;133.70;54.03;;;;;;;4.18;94.16;97726.95;1664986;85;26463;-78
2022/12/23 07:46:14;;;;;;;93.65;31.75;;;;;;;4.19;94.17;97728.55;1665091;85;25518;-78
2022/12/23 07:48:41;;;;;;;168.95;50.58;;;;;;;4.21;94.39;97727.72;1664471;85;28223;-77
2022/12/23 07:51:07;;;;;;;333.45;94.15;;;;;;;4.22;94.20;97725.25;1664952;85;25547;-79
2022/12/23 07:53:34;;;;;;;95.70;30.68;;;;;;;4.24;94.05;97724.95;1688401;84;25755;-79
2022/12/23 07:56:00;;;;;;;56.18;19.90;;;;;;;4.26;94.23;97730.33;1688248;84;25576;-76
2022/12/23 07:58:27;;;;;;;30.37;10.23;;;;;;;4.28;94.18;97721.91;1664844;85;25494;-69
2022/12/23 08:01:06;;;;;;;30.45;11.40;;;;;;;4.31;94.33;97720.50;1642536;85;27254;-69
2022/12/23 08:03:33;;;;;;;28.80;10.78;;;;;;;4.32;94.33;97720.77;1665247;85;25666;-69
2022/12/23 08:06:13;;;;;;;25.88;10.40;;;;;;;4.35;94.33;97727.75;1682875;84;25623;-69
2022/12/23 08:08:42;;;;;;;31.60;10.82;;;;;;;4.34;94.38;97715.84;1665266;85;25686;-71
2022/12/23 08:11:10;;;;;;;21.68;8.50;;;;;;;4.35;94.43;97716.90;1688251;84;25680;-69
2022/12/23 08:13:40;;;;;;;16.32;8.43;;;;;;;4.37;94.49;97708.47;1665122;85;27466;-70
2022/12/23 08:16:08;;;;;;;19.80;9.03;;;;;;;4.38;94.61;97698.67;1664981;85;25558;-69
2022/12/23 08:18:37;;;;;;;23.42;9.93;;;;;;;4.43;94.65;97701.08;1644613;85;25808;-72
2022/12/23 08:21:14;;;;;;;18.85;8.53;;;;;;;4.46;94.80;97701.84;1665046;85;25783;-69
2022/12/23 08:23:42;;;;;;;19.30;8.93;;;;;;;4.49;94.96;97701.24;1665092;85;25488;-70
2022/12/23 08:26:18;;;;;;;15.03;7.65;;;;;;;4.54;94.95;97697.07;1642525;85;27499;-70
2022/12/23 08:28:45;;;;;;;19.05;9.35;;;;;;;4.58;94.92;97695.94;1664853;85;25782;-69
2022/12/23 08:31:24;;;;;;;14.07;7.80;;;;;;;4.64;94.76;97693.39;1665092;85;25472;-70
2022/12/23 08:33:55;;;;;;;15.20;7.42;;;;;;;4.64;94.67;97692.03;1665002;85;25793;-68
2022/12/23 08:36:25;;;;;;;27.47;11.13;;;;;;;4.66;94.71;97693.09;1665435;85;25472;-69
2022/12/23 08:38:55;;;;;;;11.70;6.78;;;;;;;4.66;94.63;97688.45;1664703;85;27664;-69
2022/12/23 08:41:26;;;;;;;19.45;9.38;;;;;;;4.69;94.63;97692.50;1683074;84;25646;-69
2022/12/23 08:43:53;;;;;;;;;;;;;;;4.71;94.57;97687.02;1667923;85;25675;-68
2022/12/23 08:46:20;;;;;;;24.07;10.45;;;;;;;4.73;94.64;97693.50;1663544;85;25870;-70
2022/12/23 08:48:47;;;;;;;25.50;12.20;;;;;;;4.74;94.62;97689.67;1664978;85;25522;-69
2022/12/23 08:51:16;;;;;;;33.55;14.60;;;;;;;4.77;94.55;97701.29;1664968;84;27362;-71
2022/12/23 08:53:43;;;;;;;39.98;18.32;;;;;;;4.81;94.60;97703.65;1688274;84;25453;-69
2022/12/23 08:56:13;;;;;;;24.55;12.37;;;;;;;4.85;94.61;97701.97;1664906;85;25432;-68
2022/12/23 08:58:42;;;;;;;20.77;10.35;;;;;;;4.93;94.66;97702.38;1683564;85;25773;-69
2022/12/23 09:01:13;;;;;;;17.80;11.33;;;;;;;4.95;94.50;97688.74;1664902;84;25703;-68
2022/12/23 09:03:40;;;;;;;24.23;12.37;;;;;;;4.95;94.37;97686.59;1688449;84;27255;-68
2022/12/23 09:06:11;;;;;;;25.45;12.15;;;;;;;4.94;94.40;97687.68;1642260;85;26040;-71
2022/12/23 09:08:40;;;;;;;17.80;9.85;;;;;;;4.96;94.58;97682.77;1687274;84;25687;-68
2022/12/23 09:11:12;;;;;;;18.12;9.48;;;;;;;4.99;94.64;97684.88;1664929;85;25731;-69
2022/12/23 09:13:39;;;;;;;16.48;9.65;;;;;;;5.04;94.64;97677.20;1644625;85;25494;-70
2022/12/23 09:16:07;;;;;;;19.35;9.80;;;;;;;5.03;94.26;97669.59;1682537;84;27422;-69
2022/12/23 09:18:35;;;;;;;18.52;10.88;;;;;;;5.05;94.10;97663.86;1644215;85;25724;-70
2022/12/23 09:21:07;;;;;;;18.45;10.98;;;;;;;5.06;93.95;97666.84;1642461;85;25683;-71
2022/12/23 09:23:35;;;;;;;33.80;16.73;;;;;;;5.06;93.69;97664.91;1664908;85;26411;-72
2022/12/23 09:26:04;;;;;;;27.70;15.13;;;;;;;5.11;93.85;97655.32;1688014;84;25497;-69
2022/12/23 09:28:31;;;;;;;20.32;11.18;;;;;;;5.14;93.73;97651.19;1665190;85;27405;-69
2022/12/23 09:30:59;;;;;;;20.77;11.28;;;;;;;5.18;93.65;97656.25;1687921;84;25675;-69
2022/12/23 09:33:26;;;;;;;23.20;12.50;;;;;;;5.19;93.46;97644.84;1688276;84;25607;-71
2022/12/23 09:35:52;;;;;;;27.80;16.12;;;;;;;5.24;93.65;97650.97;1642603;85;25683;-73
2022/12/23 09:38:19;;;;;;;25.57;13.93;;;;;;;5.33;93.80;97642.94;1688380;84;25627;-70
2022/12/23 09:40:45;;;;;;;20.08;12.40;;;;;;;5.40;93.44;97631.64;1642545;85;27672;-70
2022/12/23 09:43:45;;;;;;;41.28;24.77;;;;;;;5.46;93.42;97624.98;1688162;84;25714;-68
2022/12/23 09:46:24;;;;;;;46.20;22.60;;;;;;;5.59;93.66;97629.34;1664743;85;25666;-71
2022/12/23 09:49:09;;;;;;;27.05;14.13;;;;;;;5.63;92.74;97632.50;1688025;83;25698;-69
2022/12/23 09:51:37;;;;;;;38.13;21.12;;;;;;;5.65;92.53;97634.91;1688364;84;25624;-69
2022/12/23 09:54:20;;;;;;;32.70;18.02;;;;;;;5.60;92.22;97626.86;1688004;84;27478;-69
2022/12/23 09:57:10;;;;;;;22.48;12.33;;;;;;;5.57;92.44;97626.11;1688356;84;25485;-68
2022/12/23 10:00:00;;;;;;;32.13;17.48;;;;;;;5.55;92.67;97623.70;1686851;84;25705;-69
2022/12/23 10:02:41;;;;;;;33.40;19.55;;;;;;;5.58;92.84;97623.66;1664827;85;26626;-69
2022/12/23 10:05:39;;;;;;;;;;;;;;;5.61;92.94;97617.04;1685609;84;25674;-73
2022/12/23 10:08:23;;;;;;;17.42;8.98;;;;;;;5.64;93.00;97610.17;1682602;85;27436;-73
2022/12/23 10:11:00;;;;;;;28.27;11.57;;;;;;;5.63;93.11;97615.37;1664886;85;25445;-69
2022/12/23 10:13:40;;;;;;;16.85;8.73;;;;;;;5.69;93.11;97621.48;1688309;84;25430;-71
2022/12/23 10:16:13;;;;;;;20.23;10.35;;;;;;;5.73;93.07;97608.91;1683002;84;25771;-70
2022/12/23 10:18:54;;;;;;;18.17;7.50;;;;;;;5.78;93.11;97612.86;1688336;84;25450;-70
2022/12/23 10:21:47;;;;;;;9.28;4.58;;;;;;;5.83;93.07;97614.66;1683375;84;30426;-71
2022/12/23 10:24:22;;;;;;;19.45;8.88;;;;;;;5.82;92.98;97614.41;1664792;85;25647;-74
2022/12/23 10:26:55;;;;;;;22.30;11.00;;;;;;;5.85;92.88;97613.25;1682080;84;25516;-70
2022/12/23 10:29:25;;;;;;;18.25;8.30;;;;;;;5.87;92.90;97612.91;1665186;85;25917;-69
2022/12/23 10:32:18;;;;;;;21.20;9.05;;;;;;;5.88;92.97;97613.97;1644715;85;25490;-72
2022/12/23 10:34:55;;;;;;;23.12;11.25;;;;;;;5.89;93.00;97612.06;1668498;86;28354;-74
2022/12/23 10:37:51;;;;;;;21.42;9.78;;;;;;;5.93;93.12;97613.05;1668357;86;25733;-70
2022/12/23 10:40:25;;;;;;;19.75;9.13;;;;;;;5.98;93.18;97610.21;1668492;86;25729;-70
2022/12/23 10:43:02;;;;;;;18.02;9.35;;;;;;;6.05;92.98;97619.34;1645898;86;26453;-71
2022/12/23 10:46:18;;;;;;;20.20;9.15;;;;;;;6.06;92.81;97605.16;1668377;86;25485;-70
2022/12/23 10:49:19;;;;;;;18.45;9.05;;;;;;;6.08;92.75;97613.83;1668133;86;28321;-70
2022/12/23 10:51:52;;;;;;;17.13;8.97;;;;;;;6.08;92.61;97611.92;1667699;86;25275;-72
2022/12/23 10:54:24;;;;;;;19.82;10.15;;;;;;;6.00;92.61;97613.44;1668562;86;25483;-71
2022/12/23 10:56:50;;;;;;;29.02;13.53;;;;;;;5.97;92.65;97614.05;1667678;86;25856;-71
2022/12/23 10:59:27;;;;;;;21.50;10.55;;;;;;;5.97;92.75;97609.16;1641509;86;25746;-74
2022/12/23 11:02:26;;;;;;;19.57;10.43;;;;;;;5.98;92.88;97605.32;1645574;86;27456;-71
2022/12/23 11:04:53;;;;;;;19.00;10.40;;;;;;;6.04;92.93;97612.27;1645179;86;25753;-73
2022/12/23 11:07:26;;;;;;;25.48;12.40;;;;;;;6.06;92.88;97605.98;1645553;86;26513;-68
2022/12/23 11:09:58;;;;;;;28.35;12.30;;;;;;;6.11;92.99;97611.85;1645362;86;26442;-70
2022/12/23 11:12:31;;;;;;;35.63;15.60;;;;;;;6.14;92.93;97616.09;1663645;85;25521;-69
2022/12/23 11:14:58;;;;;;;38.78;16.15;;;;;;;6.19;92.80;97623.91;1683099;84;28442;-69
2022/12/23 11:17:29;;;;;;;35.65;14.78;;;;;;;6.25;93.03;97622.66;1688030;84;25783;-69
2022/12/23 11:20:15;;;;;;;37.48;15.23;;;;;;;6.28;92.79;97621.47;1688187;85;25689;-70
2022/12/23 11:22:54;;;;;;;55.67;21.02;;;;;;;6.36;93.00;97618.55;1693138;84;25620;-72
2022/12/23 11:25:42;;;;;;;56.33;22.07;;;;;;;6.38;92.68;97618.24;1669792;85;25444;-73
2022/12/23 11:28:15;;;;;;;44.95;19.20;;;;;;;6.38;92.68;97620.42;1692681;84;27502;-71
2022/12/23 11:31:13;;;;;;;53.73;21.27;;;;;;;6.41;93.03;97623.06;1693196;84;25859;-76
2022/12/23 11:33:58;;;;;;;47.62;19.90;;;;;;;6.42;92.70;97623.87;1692659;84;25450;-71
2022/12/23 11:36:28;;;;;;;39.98;18.55;;;;;;;6.46;92.72;97624.85;1693114;84;26788;-75
2022/12/23 11:39:15;;;;;;;48.20;19.37;;;;;;;6.48;92.52;97626.14;1693401;84;25754;-70
2022/12/23 11:41:48;;;;;;;51.28;21.35;;;;;;;6.52;92.51;97618.97;1669943;85;28254;-72
2022/12/23 11:44:34;;;;;;;104.85;35.30;;;;;;;6.55;92.31;97617.54;1693053;84;25895;-73
2022/12/23 11:47:30;;;;;;;47.93;21.52;;;;;;;6.55;91.85;97624.89;1687923;85;25703;-73
2022/12/23 11:50:00;;;;;;;44.15;20.80;;;;;;;6.56;91.87;97615.63;1690927;84;25759;-72
2022/12/23 11:52:30;;;;;;;38.48;19.87;;;;;;;6.56;91.67;97616.41;1664960;85;25714;-76
2022/12/23 11:55:00;;;;;;;22.90;12.40;;;;;;;6.55;91.61;97598.48;1664806;85;29125;-74
2022/12/23 11:57:40;;;;;;;34.20;17.12;;;;;;;6.51;91.25;97606.46;1686775;85;25497;-75
2022/12/23 12:00:27;;;;;;;40.15;19.90;;;;;;;6.51;91.60;97604.31;1688299;85;25631;-73
2022/12/23 12:03:03;;;;;;;37.95;17.77;;;;;;;6.53;91.78;97604.24;1686988;85;25739;-73
2022/12/23 12:05:39;;;;;;;36.33;16.57;;;;;;;6.50;91.24;97610.86;1688279;84;25677;-73
2022/12/23 12:08:13;;;;;;;41.42;18.27;;;;;;;6.44;91.06;97612.11;1688251;85;27487;-73
2022/12/23 12:10:41;;;;;;;42.27;19.02;;;;;;;6.39;91.15;97609.77;1665084;85;26701;-73
2022/12/23 12:13:27;;;;;;;38.45;19.20;;;;;;;6.39;91.32;97609.77;1688266;85;25704;-73
2022/12/23 12:16:20;;;;;;;33.28;16.02;;;;;;;6.35;90.92;97618.31;1685688;85;25789;-72
2022/12/23 12:18:49;;;;;;;24.92;13.15;;;;;;;6.34;91.32;97623.52;1664572;85;25517;-72
2022/12/23 12:21:20;;;;;;;39.90;17.55;;;;;;;6.32;90.97;97631.19;1688286;84;27334;-73
2022/12/23 12:23:53;;;;;;;26.85;12.98;;;;;;;6.28;91.20;97630.99;1688468;84;25445;-73